KESF/ESF METAR and TAF weather

Enter ICAO airport designator
Station Type Date Time Source
KESF METAR 2022/06/28 23:53 UTC NOAA

KESF 282353Z AUTO VRB04KT 10SM CLR 31/21 A3002 RMK AO2 SLP164 T03060206 10339 20306 56007


Station Type Date Time Source
KESF Decoded METAR 2022/06/28 23:53 UTC NOAA

ALEXANDRIA ESLER RGNL AIRPORT , LA, United States (KESF) 31-24N 092-18W 28M
Jun 28, 2022 - 07:53 PM EDT / 2022.06.28 2353 UTC
Wind: Variable at 5 MPH (4 KT):0
Visibility: 10 mile(s):0
Sky conditions: clear
Temperature: 87.1 F (30.6 C)
Dew Point: 69.1 F (20.6 C)
Relative Humidity: 55%
Pressure (altimeter): 30.02 in. Hg (1016 hPa)
Pressure tendency: 0.02 inches (0.7 hPa) lower than three hours ago
ob: KESF 282353Z AUTO VRB04KT 10SM CLR 31/21 A3002 RMK AO2 SLP164 T03060206 10339 20306 56007
cycle: 0

Station Type Date Time Source
KESF TAF UTC NOAA

Error!

Example: see airport list